Time;durP1;ratioP1;P1;durP2;ratioP2;P2;SDS_P1;SDS_P2;PMS_P1;PMS_P2;Temp;Humidity;BMP_temperature;BMP_pressure;BME280_temperature;BME280_humidity;BME280_pressure;Samples;Min_cycle;Max_cycle;Signal;HPM_P1;HPM_P2
2021/01/14 00:02:20;;;;;;;1.10;0.90;;;4.30;98.00;;;;;;5073452;28;20504;-67
2021/01/14 00:04:47;;;;;;;1.37;1.20;;;4.30;98.00;;;;;;5071345;28;20506;-66
2021/01/14 00:07:13;;;;;;;2.43;1.17;;;4.30;98.00;;;;;;5073721;28;20491;-66
2021/01/14 00:09:40;;;;;;;1.27;1.10;;;4.30;98.00;;;;;;5071214;28;20460;-68
2021/01/14 00:12:07;;;;;;;1.10;1.07;;;4.30;98.00;;;;;;5072331;28;20452;-66
2021/01/14 00:14:34;;;;;;;1.10;0.90;;;4.20;98.00;;;;;;5071050;28;20459;-67
2021/01/14 00:17:01;;;;;;;1.10;1.10;;;4.20;98.00;;;;;;5073335;28;20452;-66
2021/01/14 00:19:28;;;;;;;1.93;1.30;;;4.30;98.00;;;;;;5070811;28;20958;-66
2021/01/14 00:21:55;;;;;;;1.40;1.10;;;4.30;98.00;;;;;;5073171;28;20467;-65
2021/01/14 00:24:21;;;;;;;1.53;1.37;;;4.30;98.00;;;;;;5070842;28;20452;-68
2021/01/14 00:26:48;;;;;;;1.10;0.90;;;4.30;98.00;;;;;;5073253;28;20484;-66
2021/01/14 00:29:14;;;;;;;1.10;1.00;;;4.40;98.00;;;;;;5070673;28;20468;-66
2021/01/14 00:31:41;;;;;;;1.10;1.00;;;4.50;98.00;;;;;;5072882;28;20969;-66
2021/01/14 00:34:08;;;;;;;1.10;1.00;;;4.50;98.00;;;;;;5069539;28;20461;-66
2021/01/14 00:39:17;;;;;;;1.10;1.00;;;4.40;98.00;;;;;;5068244;28;20456;-66
2021/01/14 00:41:44;;;;;;;1.10;0.90;;;4.40;98.00;;;;;;5072517;28;20969;-65
2021/01/14 00:44:10;;;;;;;1.50;1.10;;;4.40;98.00;;;;;;5070423;28;20483;-66
2021/01/14 00:46:37;;;;;;;1.10;1.10;;;4.40;98.00;;;;;;5072374;28;20481;-66
2021/01/14 00:49:03;;;;;;;1.10;1.00;;;4.40;98.00;;;;;;5070272;28;20480;-66
2021/01/14 00:51:33;;;;;;;1.10;1.00;;;4.40;98.00;;;;;;5072457;28;20460;-66
2021/01/14 00:54:00;;;;;;;2.60;1.30;;;4.50;98.00;;;;;;5070354;28;20460;-66
2021/01/14 00:56:31;;;;;;;1.10;1.00;;;4.40;98.00;;;;;;5072419;28;21024;-66
2021/01/14 00:58:58;;;;;;;1.10;0.90;;;4.30;98.00;;;;;;5069929;28;20457;-66
2021/01/14 01:01:25;;;;;;;1.10;1.00;;;4.30;98.00;;;;;;5071996;28;20954;-67
2021/01/14 01:03:52;;;;;;;1.10;1.00;;;4.40;98.00;;;;;;5070035;28;20540;-66
2021/01/14 01:06:20;;;;;;;1.17;1.17;;;4.40;98.00;;;;;;5072565;28;20496;-66
2021/01/14 01:08:47;;;;;;;1.10;1.00;;;4.30;98.00;;;;;;5070134;28;20588;-66
2021/01/14 01:11:14;;;;;;;1.10;1.00;;;4.30;98.00;;;;;;5072263;28;20464;-65
2021/01/14 01:13:41;;;;;;;1.10;0.90;;;4.20;98.00;;;;;;5069559;28;20460;-66
2021/01/14 01:16:07;;;;;;;1.10;1.00;;;4.10;98.00;;;;;;5072133;28;20836;-65
2021/01/14 01:18:34;;;;;;;1.10;1.00;;;4.00;98.00;;;;;;5069876;28;20457;-65
2021/01/14 01:21:00;;;;;;;1.10;1.00;;;4.00;98.00;;;;;;5072449;28;20495;-66
2021/01/14 01:23:30;;;;;;;1.10;0.90;;;3.90;98.00;;;;;;5070454;28;20468;-66
2021/01/14 01:25:56;;;;;;;1.10;1.00;;;3.90;98.00;;;;;;5072051;28;20527;-66
2021/01/14 01:28:24;;;;;;;1.10;1.00;;;3.90;98.00;;;;;;5070707;28;20465;-66
2021/01/14 01:30:51;;;;;;;1.30;1.27;;;3.80;98.00;;;;;;5069377;28;20862;-66
2021/01/14 01:33:17;;;;;;;1.10;1.10;;;3.70;98.00;;;;;;5071868;28;20456;-66
2021/01/14 01:35:49;;;;;;;1.47;1.20;;;3.70;98.00;;;;;;5068084;28;20456;-66
2021/01/14 01:38:16;;;;;;;1.10;1.00;;;3.80;98.00;;;;;;5071947;28;20968;-66
2021/01/14 01:40:43;;;;;;;1.73;1.50;;;3.90;98.00;;;;;;5069299;28;20471;-66
2021/01/14 01:43:09;;;;;;;1.10;1.00;;;3.90;98.00;;;;;;5071545;28;20506;-65
2021/01/14 01:45:37;;;;;;;1.10;1.10;;;4.00;98.00;;;;;;5068661;28;20978;-66
2021/01/14 01:48:05;;;;;;;1.30;1.10;;;4.00;98.00;;;;;;5071800;28;20456;-65
2021/01/14 01:50:31;;;;;;;1.70;1.20;;;4.00;98.00;;;;;;5069307;28;20815;-66
2021/01/14 01:52:58;;;;;;;1.17;1.13;;;3.90;98.00;;;;;;5071840;28;20460;-66
2021/01/14 01:55:25;;;;;;;1.10;0.90;;;3.90;98.00;;;;;;5069496;28;20463;-66
2021/01/14 01:57:52;;;;;;;1.20;1.10;;;3.90;98.00;;;;;;5071625;28;20464;-65
2021/01/14 02:00:19;;;;;;;1.10;0.97;;;3.80;98.00;;;;;;5069501;28;20518;-66
2021/01/14 02:02:46;;;;;;;1.17;1.10;;;3.80;98.00;;;;;;5071623;28;20468;-66
2021/01/14 02:05:13;;;;;;;1.10;1.00;;;3.80;98.00;;;;;;5069008;28;20463;-66
2021/01/14 02:07:54;;;;;;;1.10;1.00;;;3.80;98.00;;;;;;5071496;28;20457;-66
2021/01/14 02:10:29;;;;;;;1.10;0.90;;;3.80;98.00;;;;;;5069270;28;20461;-66
2021/01/14 02:13:05;;;;;;;1.10;1.00;;;3.70;98.00;;;;;;5071413;28;20483;-67
2021/01/14 02:15:33;;;;;;;1.10;0.90;;;3.60;98.00;;;;;;5069151;28;20472;-66
2021/01/14 02:18:03;;;;;;;1.10;1.00;;;3.60;98.00;;;;;;5071540;28;20563;-66
2021/01/14 02:20:31;;;;;;;1.10;1.03;;;3.70;98.00;;;;;;5068935;28;20661;-66
2021/01/14 02:23:02;;;;;;;1.57;1.30;;;3.80;98.00;;;;;;5071384;28;20875;-68
2021/01/14 02:25:34;;;;;;;1.43;1.30;;;3.90;98.00;;;;;;5068951;28;20481;-65
2021/01/14 02:28:03;;;;;;;1.10;0.90;;;3.90;98.00;;;;;;5071254;28;20492;-66
2021/01/14 02:30:30;;;;;;;1.30;1.30;;;3.90;98.00;;;;;;5068990;28;20461;-66
2021/01/14 02:32:57;;;;;;;1.10;0.90;;;3.90;98.00;;;;;;5071193;28;20457;-66
2021/01/14 02:35:23;;;;;;;1.10;1.10;;;3.80;98.00;;;;;;5068840;28;20835;-66
2021/01/14 02:37:50;;;;;;;1.10;0.97;;;3.70;98.00;;;;;;5071118;28;20460;-66
2021/01/14 02:40:16;;;;;;;1.10;1.00;;;3.80;98.00;;;;;;5068762;28;20770;-66
2021/01/14 02:42:43;;;;;;;1.10;1.00;;;4.00;98.00;;;;;;5071058;28;20449;-66
2021/01/14 02:45:13;;;;;;;1.30;1.20;;;3.90;98.00;;;;;;5068974;28;20457;-66
2021/01/14 02:47:42;;;;;;;2.33;1.50;;;3.90;98.00;;;;;;5071015;28;20449;-66
2021/01/14 02:50:12;;;;;;;2.03;1.83;;;4.00;98.00;;;;;;5068728;28;20464;-66
2021/01/14 02:52:42;;;;;;;1.20;1.10;;;3.90;98.00;;;;;;5071004;28;20494;-67
2021/01/14 02:55:12;;;;;;;1.33;1.10;;;3.90;98.00;;;;;;5068693;28;20465;-66
2021/01/14 02:57:39;;;;;;;1.10;1.00;;;3.80;98.00;;;;;;5073831;28;20484;-65
2021/01/14 03:00:07;;;;;;;1.47;1.00;;;3.90;98.00;;;;;;5072108;28;20962;-66
2021/01/14 03:02:35;;;;;;;1.30;1.23;;;4.00;98.00;;;;;;5074768;28;20467;-68
2021/01/14 03:05:01;;;;;;;1.10;1.10;;;4.00;98.00;;;;;;5072629;28;20506;-67
2021/01/14 03:07:28;;;;;;;1.10;1.00;;;3.90;98.00;;;;;;5074441;28;20484;-66
2021/01/14 03:09:54;;;;;;;1.20;1.20;;;3.90;98.00;;;;;;5072091;28;20816;-69
2021/01/14 03:12:20;;;;;;;1.10;0.90;;;3.90;98.00;;;;;;5074312;28;20842;-65
2021/01/14 03:14:47;;;;;;;1.10;1.03;;;3.90;98.00;;;;;;5072283;28;20451;-65
2021/01/14 03:17:13;;;;;;;1.93;1.40;;;4.00;98.00;;;;;;5074233;28;20795;-67
2021/01/14 03:19:41;;;;;;;1.10;0.97;;;3.90;98.00;;;;;;5071833;28;20468;-66
2021/01/14 03:22:07;;;;;;;1.20;1.10;;;4.00;98.00;;;;;;5074186;28;20489;-65
2021/01/14 03:24:34;;;;;;;1.60;1.50;;;4.10;98.00;;;;;;5071901;28;20457;-66
2021/01/14 03:27:00;;;;;;;1.10;1.00;;;4.10;98.00;;;;;;5073089;28;20488;-67
2021/01/14 03:29:27;;;;;;;1.10;0.90;;;4.20;98.00;;;;;;5070612;28;20471;-66
2021/01/14 03:31:59;;;;;;;1.10;0.90;;;4.20;98.00;;;;;;5073160;28;20464;-66
2021/01/14 03:34:25;;;;;;;1.10;0.90;;;4.10;98.00;;;;;;5070718;28;20469;-68
2021/01/14 03:37:00;;;;;;;1.20;1.10;;;4.10;98.00;;;;;;5072774;28;20797;-66
2021/01/14 03:39:28;;;;;;;1.10;0.90;;;4.10;98.00;;;;;;5071300;28;20455;-66
2021/01/14 03:41:55;;;;;;;1.10;1.00;;;3.80;98.00;;;;;;5074182;28;20463;-66
2021/01/14 03:44:22;;;;;;;1.10;1.00;;;3.60;98.00;;;;;;5071805;28;20459;-66
2021/01/14 03:46:50;;;;;;;1.10;1.00;;;3.50;98.00;;;;;;5073836;28;21069;-65
2021/01/14 03:49:16;;;;;;;2.60;1.40;;;3.40;98.00;;;;;;5071415;28;21027;-67
2021/01/14 03:51:44;;;;;;;1.80;1.27;;;3.40;98.00;;;;;;5073677;28;20453;-65
2021/01/14 03:54:11;;;;;;;1.10;0.90;;;3.30;98.00;;;;;;5071415;28;20496;-66
2021/01/14 03:56:38;;;;;;;1.10;0.90;;;3.20;98.00;;;;;;5073756;28;20464;-66
2021/01/14 03:59:05;;;;;;;1.10;0.90;;;3.10;98.00;;;;;;5071709;28;20831;-66
2021/01/14 04:01:33;;;;;;;1.10;0.90;;;3.00;98.00;;;;;;5073398;28;20475;-66
2021/01/14 04:04:00;;;;;;;1.10;0.90;;;3.00;98.00;;;;;;5071379;28;20460;-66
2021/01/14 04:06:34;;;;;;;1.10;0.90;;;3.00;98.00;;;;;;5073305;28;20494;-66
2021/01/14 04:09:03;;;;;;;1.57;1.30;;;3.00;98.00;;;;;;5070608;28;20946;-65
2021/01/14 04:11:30;;;;;;;2.30;1.43;;;3.00;98.00;;;;;;5073426;28;20470;-66
2021/01/14 04:13:57;;;;;;;1.10;1.00;;;3.00;98.00;;;;;;5071075;28;20553;-66
2021/01/14 04:16:24;;;;;;;1.20;1.20;;;2.90;98.00;;;;;;5071908;28;20460;-68
2021/01/14 04:18:54;;;;;;;1.10;0.90;;;2.80;98.00;;;;;;5069826;28;20464;-66
2021/01/14 04:21:21;;;;;;;2.70;1.40;;;2.90;98.00;;;;;;5073007;28;20517;-66
2021/01/14 04:23:49;;;;;;;1.10;1.00;;;2.90;98.00;;;;;;5070909;28;20485;-66
2021/01/14 04:26:18;;;;;;;1.10;1.00;;;2.80;98.00;;;;;;5072849;28;20513;-66
2021/01/14 04:28:45;;;;;;;1.10;1.00;;;2.80;98.00;;;;;;5071757;28;20460;-66
2021/01/14 04:31:13;;;;;;;1.10;1.00;;;2.80;98.00;;;;;;5072706;28;20950;-66
2021/01/14 04:33:39;;;;;;;1.10;0.90;;;2.80;98.00;;;;;;5072706;28;20449;-66
2021/01/14 04:36:06;;;;;;;1.10;0.90;;;2.80;98.00;;;;;;5070085;28;20455;-66
2021/01/14 04:38:33;;;;;;;1.20;1.17;;;2.90;98.00;;;;;;5072631;28;20478;-66
2021/01/14 04:41:01;;;;;;;1.10;1.00;;;2.90;98.00;;;;;;5070306;28;20949;-69
2021/01/14 04:43:29;;;;;;;1.10;0.90;;;2.90;98.00;;;;;;5072625;28;20448;-66
2021/01/14 04:46:04;;;;;;;1.10;0.90;;;2.90;98.00;;;;;;5069394;28;20880;-66
2021/01/14 04:48:31;;;;;;;1.20;1.20;;;2.90;98.00;;;;;;5072597;28;20458;-66
2021/01/14 04:51:06;;;;;;;1.10;0.90;;;3.00;98.00;;;;;;5069319;28;20455;-68
2021/01/14 04:53:35;;;;;;;1.10;0.90;;;2.90;98.00;;;;;;5072524;28;20452;-67
2021/01/14 04:56:04;;;;;;;1.67;1.13;;;2.80;98.00;;;;;;5068678;28;21154;-65
2021/01/14 04:58:32;;;;;;;1.10;1.00;;;2.80;98.00;;;;;;5072758;28;20853;-67
2021/01/14 05:01:03;;;;;;;1.10;1.00;;;2.90;98.00;;;;;;5070338;28;20453;-65
2021/01/14 05:03:30;;;;;;;1.10;0.90;;;2.90;98.00;;;;;;5072233;28;20452;-66
2021/01/14 05:05:57;;;;;;;1.27;1.20;;;2.90;98.00;;;;;;5069756;28;20479;-66
2021/01/14 05:08:28;;;;;;;1.40;1.27;;;2.90;98.00;;;;;;5072248;28;20479;-65
2021/01/14 05:10:55;;;;;;;1.10;1.00;;;2.90;98.00;;;;;;5069800;28;20525;-66
2021/01/14 05:13:22;;;;;;;1.10;0.90;;;3.00;98.00;;;;;;5072081;28;20509;-67
2021/01/14 05:15:49;;;;;;;1.10;0.90;;;3.00;98.00;;;;;;5069737;28;20460;-66
2021/01/14 05:18:17;;;;;;;1.10;0.90;;;3.00;98.00;;;;;;5070828;28;20972;-66
2021/01/14 05:20:43;;;;;;;2.90;1.60;;;3.00;98.00;;;;;;5069070;28;20459;-66
2021/01/14 05:23:11;;;;;;;1.10;1.00;;;3.00;98.00;;;;;;5072088;28;20464;-65
2021/01/14 05:25:51;;;;;;;1.10;0.90;;;3.00;98.00;;;;;;5069455;28;20526;-66
2021/01/14 05:28:18;;;;;;;1.10;0.90;;;2.90;98.00;;;;;;5071920;28;21152;-66
2021/01/14 05:30:45;;;;;;;1.10;1.00;;;2.80;98.00;;;;;;5068297;28;20547;-66
2021/01/14 05:33:13;;;;;;;1.10;0.90;;;2.70;98.00;;;;;;5071825;28;20466;-67
2021/01/14 05:35:47;;;;;;;1.10;0.90;;;2.70;98.00;;;;;;5069548;28;20459;-65
2021/01/14 05:38:26;;;;;;;1.10;0.97;;;2.60;98.00;;;;;;5071810;28;20546;-69
2021/01/14 05:41:18;;;;;;;1.20;1.10;;;2.50;98.00;;;;;;5069351;28;20459;-68
2021/01/14 05:43:50;;;;;;;1.10;0.90;;;2.50;98.00;;;;;;5071737;28;20546;-69
2021/01/14 05:46:18;;;;;;;1.10;1.00;;;2.50;98.00;;;;;;5070132;28;20474;-67
2021/01/14 05:48:45;;;;;;;1.47;1.00;;;2.40;98.00;;;;;;5071826;28;20504;-68
2021/01/14 05:51:23;;;;;;;1.10;0.97;;;2.40;98.00;;;;;;5069767;28;20455;-67
2021/01/14 05:53:58;;;;;;;1.20;1.10;;;2.40;98.00;;;;;;5071779;28;20470;-67
2021/01/14 05:56:42;;;;;;;1.20;1.10;;;2.30;98.00;;;;;;5071949;28;20819;-67
2021/01/14 05:59:09;;;;;;;1.10;1.00;;;2.30;98.00;;;;;;5068092;28;20514;-66
2021/01/14 06:01:40;;;;;;;1.10;0.97;;;2.30;98.00;;;;;;5071551;28;20546;-69
2021/01/14 06:04:17;;;;;;;1.10;0.90;;;2.30;98.00;;;;;;5067809;28;20462;-67
2021/01/14 06:06:49;;;;;;;1.10;0.90;;;2.30;98.00;;;;;;5071520;28;20489;-67
2021/01/14 06:09:17;;;;;;;1.80;1.20;;;2.30;98.00;;;;;;5069002;28;20837;-67
2021/01/14 06:11:44;;;;;;;1.10;0.97;;;2.40;98.00;;;;;;5071246;28;20460;-68
2021/01/14 06:14:32;;;;;;;1.10;0.90;;;2.30;98.00;;;;;;5069024;28;20459;-67
2021/01/14 06:17:00;;;;;;;1.10;0.90;;;2.30;98.00;;;;;;5067808;28;20460;-67
2021/01/14 06:19:27;;;;;;;1.10;0.90;;;2.30;98.00;;;;;;5068782;28;20464;-67
2021/01/14 06:21:58;;;;;;;1.10;0.90;;;2.40;98.00;;;;;;5071216;28;20464;-66
2021/01/14 06:24:26;;;;;;;1.10;1.00;;;2.30;98.00;;;;;;5067772;28;20462;-67
2021/01/14 06:26:55;;;;;;;1.10;1.00;;;2.30;98.00;;;;;;5071206;28;20488;-67
2021/01/14 06:29:24;;;;;;;1.10;1.00;;;2.40;98.00;;;;;;5069103;28;20459;-67
2021/01/14 06:31:51;;;;;;;1.10;1.00;;;2.30;98.00;;;;;;5072830;28;20476;-67
2021/01/14 06:34:20;;;;;;;1.10;0.90;;;2.40;98.00;;;;;;5072657;28;20459;-69
2021/01/14 06:36:50;;;;;;;1.10;0.90;;;2.40;98.00;;;;;;5075352;28;20463;-67
2021/01/14 06:39:19;;;;;;;1.10;1.10;;;2.40;98.00;;;;;;5072753;28;20493;-67
2021/01/14 06:41:47;;;;;;;1.10;0.90;;;2.40;98.00;;;;;;5075255;28;20473;-67
2021/01/14 06:44:15;;;;;;;1.60;1.53;;;2.50;98.00;;;;;;5072456;28;20820;-67
2021/01/14 06:46:42;;;;;;;1.10;0.90;;;2.40;98.00;;;;;;5074906;28;20484;-67
2021/01/14 06:49:12;;;;;;;1.10;0.90;;;2.30;98.00;;;;;;5072787;28;20460;-67
2021/01/14 06:51:57;;;;;;;1.23;1.20;;;2.30;98.00;;;;;;5074940;28;20470;-67
2021/01/14 06:54:26;;;;;;;1.10;1.00;;;2.30;98.00;;;;;;5072185;28;20482;-67
2021/01/14 06:56:57;;;;;;;1.90;1.63;;;2.40;98.00;;;;;;5074854;28;20542;-66
2021/01/14 06:59:25;;;;;;;1.20;1.17;;;2.50;98.00;;;;;;5072519;28;20467;-66
2021/01/14 07:02:14;;;;;;;1.10;1.10;;;2.50;98.00;;;;;;5074486;28;20466;-67
2021/01/14 07:04:52;;;;;;;1.10;1.10;;;2.50;98.00;;;;;;5071776;28;20450;-67
2021/01/14 07:07:31;;;;;;;1.10;0.90;;;2.40;98.00;;;;;;5074372;28;20918;-68
2021/01/14 07:10:06;;;;;;;1.10;1.00;;;2.60;98.00;;;;;;5071857;28;20865;-68
2021/01/14 07:12:37;;;;;;;1.10;1.00;;;2.70;98.00;;;;;;5073231;28;20465;-67
2021/01/14 07:15:07;;;;;;;1.10;0.90;;;2.60;98.00;;;;;;5071871;28;20464;-67
2021/01/14 07:17:37;;;;;;;1.10;1.10;;;2.60;98.00;;;;;;5074255;28;20488;-68
2021/01/14 07:20:08;;;;;;;1.10;1.00;;;2.50;98.00;;;;;;5071831;28;21005;-67
2021/01/14 07:22:44;;;;;;;1.17;1.10;;;2.40;98.00;;;;;;5074070;28;20455;-68
2021/01/14 07:25:14;;;;;;;1.10;0.90;;;2.30;98.00;;;;;;5071964;28;20463;-67
2021/01/14 07:27:42;;;;;;;1.10;0.90;;;2.30;98.00;;;;;;5073908;28;20486;-67
2021/01/14 07:30:10;;;;;;;1.43;1.37;;;2.30;98.00;;;;;;5071747;28;20887;-67
2021/01/14 07:32:53;;;;;;;1.20;1.20;;;2.30;98.00;;;;;;5073855;28;20470;-67
2021/01/14 07:35:40;;;;;;;1.17;1.13;;;2.30;98.00;;;;;;5071740;28;20559;-69
2021/01/14 07:38:12;;;;;;;1.10;1.00;;;2.40;98.00;;;;;;5074030;28;20456;-67
2021/01/14 07:40:40;;;;;;;1.10;1.00;;;2.40;98.00;;;;;;5071718;28;20475;-68
2021/01/14 07:43:09;;;;;;;1.10;1.00;;;2.30;98.00;;;;;;5073473;28;20796;-68
2021/01/14 07:45:36;;;;;;;1.73;1.30;;;2.30;98.00;;;;;;5071760;28;20465;-68
2021/01/14 07:48:21;;;;;;;1.20;1.07;;;2.30;98.00;;;;;;5073774;28;20462;-70
2021/01/14 07:50:52;;;;;;;1.97;1.67;;;2.30;98.00;;;;;;5071026;28;20460;-68
2021/01/14 07:53:20;;;;;;;1.30;1.10;;;2.30;98.00;;;;;;5073715;28;20467;-68
2021/01/14 07:55:48;;;;;;;1.20;1.10;;;2.20;98.00;;;;;;5071435;28;20932;-69
2021/01/14 07:58:23;;;;;;;1.10;0.90;;;2.30;98.00;;;;;;5073566;28;20459;-68
2021/01/14 08:01:00;;;;;;;1.13;1.07;;;2.30;98.00;;;;;;5070919;28;20471;-66
2021/01/14 08:03:30;;;;;;;1.10;1.10;;;2.50;98.00;;;;;;5073338;28;20452;-67
2021/01/14 08:05:57;;;;;;;1.10;1.10;;;2.50;98.00;;;;;;5070811;28;20464;-67
2021/01/14 08:08:27;;;;;;;3.40;1.33;;;2.50;98.00;;;;;;5073378;28;20942;-67
2021/01/14 08:11:20;;;;;;;1.20;1.13;;;2.50;98.00;;;;;;5070578;28;20466;-67
2021/01/14 08:14:12;;;;;;;1.10;0.90;;;2.60;98.00;;;;;;5073151;28;20556;-67
2021/01/14 08:16:58;;;;;;;1.10;0.93;;;2.60;98.00;;;;;;5072909;28;20465;-67
2021/01/14 08:19:32;;;;;;;1.10;1.00;;;2.70;98.00;;;;;;5070511;28;20892;-68
2021/01/14 08:22:26;;;;;;;1.30;1.27;;;2.70;98.00;;;;;;5073139;28;20458;-67
2021/01/14 08:24:54;;;;;;;1.10;1.00;;;2.60;98.00;;;;;;5070774;28;20961;-68
2021/01/14 08:27:30;;;;;;;1.20;1.07;;;2.50;98.00;;;;;;5072920;28;20491;-67
2021/01/14 08:29:59;;;;;;;1.63;1.53;;;2.50;98.00;;;;;;5070597;28;20458;-67
2021/01/14 08:32:29;;;;;;;1.10;1.10;;;2.50;98.00;;;;;;5072851;28;20467;-68
2021/01/14 08:34:56;;;;;;;1.10;1.00;;;2.50;98.00;;;;;;5070552;28;20458;-67
2021/01/14 08:37:34;;;;;;;1.60;1.50;;;2.50;98.00;;;;;;5072823;28;21074;-67
2021/01/14 08:40:04;;;;;;;1.10;1.10;;;2.50;98.00;;;;;;5069255;28;20503;-67
2021/01/14 08:42:37;;;;;;;1.10;1.10;;;2.60;98.00;;;;;;5072838;28;20464;-67
2021/01/14 08:45:27;;;;;;;1.10;1.00;;;2.70;98.00;;;;;;5070271;28;20460;-67
2021/01/14 08:47:59;;;;;;;1.20;1.10;;;2.80;98.00;;;;;;5072777;28;20484;-68
2021/01/14 08:50:42;;;;;;;1.40;1.30;;;3.10;98.00;;;;;;5070558;28;20484;-67
2021/01/14 08:53:09;;;;;;;1.23;1.10;;;4.10;98.00;;;;;;5071026;28;20467;-67
2021/01/14 08:55:37;;;;;;;1.47;1.10;;;4.80;98.00;;;;;;5069197;28;20938;-67
2021/01/14 08:58:07;;;;;;;1.20;1.00;;;4.60;98.00;;;;;;5071913;28;20453;-68
2021/01/14 09:00:36;;;;;;;1.40;1.23;;;4.20;98.00;;;;;;5067868;28;20526;-67
2021/01/14 09:03:04;;;;;;;1.20;1.00;;;3.90;98.00;;;;;;5070797;28;20463;-70
2021/01/14 09:05:32;;;;;;;1.20;1.00;;;3.70;98.00;;;;;;5068360;28;20455;-69
2021/01/14 09:08:07;;;;;;;1.20;1.20;;;3.40;98.00;;;;;;5070143;28;21059;-68
2021/01/14 09:10:54;;;;;;;1.23;1.10;;;3.30;98.00;;;;;;5069308;28;20484;-68
2021/01/14 09:13:22;;;;;;;1.20;1.20;;;3.20;98.00;;;;;;5071330;28;20460;-68
2021/01/14 09:15:52;;;;;;;1.10;0.90;;;3.20;98.00;;;;;;5068665;28;20482;-67
2021/01/14 09:18:19;;;;;;;1.20;1.00;;;3.20;98.00;;;;;;5071227;28;20460;-67
2021/01/14 09:20:55;;;;;;;1.20;1.10;;;3.00;98.00;;;;;;5069489;28;20849;-70
2021/01/14 09:23:24;;;;;;;1.10;0.90;;;3.10;98.00;;;;;;5071472;28;20464;-68
2021/01/14 09:25:53;;;;;;;4.80;1.97;;;3.10;98.00;;;;;;5068848;28;20460;-66
2021/01/14 09:28:25;;;;;;;1.20;1.00;;;3.10;98.00;;;;;;5071322;28;20471;-69
2021/01/14 09:31:00;;;;;;;1.10;0.97;;;3.20;98.00;;;;;;5068658;28;20463;-68
2021/01/14 09:33:28;;;;;;;1.10;1.00;;;3.20;98.00;;;;;;5071169;28;20544;-68
2021/01/14 09:35:59;;;;;;;1.20;1.20;;;3.10;98.00;;;;;;5068851;28;20463;-68
2021/01/14 09:38:27;;;;;;;1.63;1.53;;;3.30;98.00;;;;;;5071246;28;20467;-67
2021/01/14 09:40:54;;;;;;;1.10;1.00;;;3.40;98.00;;;;;;5068863;28;20456;-68
2021/01/14 09:43:24;;;;;;;1.60;1.17;;;3.30;98.00;;;;;;5069676;28;20459;-68
2021/01/14 09:45:51;;;;;;;1.10;1.00;;;3.40;98.00;;;;;;5068551;28;20463;-67
2021/01/14 09:48:22;;;;;;;1.10;0.90;;;3.20;98.00;;;;;;5070907;28;20800;-68
2021/01/14 09:50:50;;;;;;;1.20;1.00;;;3.10;98.00;;;;;;5068529;28;20511;-68
2021/01/14 09:53:17;;;;;;;2.60;1.77;;;3.10;98.00;;;;;;5070866;28;20463;-68
2021/01/14 09:55:44;;;;;;;1.63;1.40;;;3.00;98.00;;;;;;5068583;28;20510;-68
2021/01/14 09:58:18;;;;;;;1.20;1.10;;;3.00;98.00;;;;;;5070818;28;20498;-68
2021/01/14 10:00:47;;;;;;;1.20;1.13;;;2.90;98.00;;;;;;5068245;28;20496;-66
2021/01/14 10:03:16;;;;;;;1.10;1.10;;;2.90;98.00;;;;;;5070734;28;20480;-67
2021/01/14 10:05:45;;;;;;;1.30;1.10;;;2.90;98.00;;;;;;5069558;28;20958;-67
2021/01/14 10:08:17;;;;;;;1.10;1.00;;;2.90;98.00;;;;;;5074801;28;20495;-67
2021/01/14 10:10:43;;;;;;;1.40;1.40;;;2.90;98.00;;;;;;5072407;28;20462;-66
2021/01/14 10:13:14;;;;;;;1.20;1.10;;;2.90;98.00;;;;;;5074913;28;20460;-66
2021/01/14 10:15:41;;;;;;;2.20;1.30;;;3.00;98.00;;;;;;5072484;28;20463;-67
2021/01/14 10:18:21;;;;;;;2.53;1.57;;;3.20;98.00;;;;;;5074794;28;20460;-69
2021/01/14 10:20:48;;;;;;;1.10;1.10;;;3.30;98.00;;;;;;5072473;28;20468;-70
2021/01/14 10:23:24;;;;;;;2.07;1.30;;;3.50;98.00;;;;;;5073479;28;20555;-68
2021/01/14 10:25:51;;;;;;;1.23;1.13;;;3.60;98.00;;;;;;5072254;28;20511;-69
2021/01/14 10:28:20;;;;;;;1.57;1.40;;;3.70;98.00;;;;;;5074550;28;20914;-68
2021/01/14 10:30:46;;;;;;;1.30;1.13;;;3.70;98.00;;;;;;5072285;28;20460;-68
2021/01/14 10:33:15;;;;;;;1.20;1.00;;;3.80;98.00;;;;;;5075028;28;20471;-68
2021/01/14 10:35:41;;;;;;;1.10;0.90;;;3.80;98.00;;;;;;5072310;28;20463;-68
2021/01/14 10:38:11;;;;;;;1.10;0.90;;;3.70;98.00;;;;;;5074462;28;20453;-69
2021/01/14 10:40:41;;;;;;;1.20;1.20;;;3.70;98.00;;;;;;5072042;28;20459;-66
2021/01/14 10:43:09;;;;;;;1.20;1.10;;;3.70;98.00;;;;;;5074638;28;20463;-69
2021/01/14 10:45:37;;;;;;;1.10;0.90;;;3.70;98.00;;;;;;5071875;28;20485;-69
2021/01/14 10:48:10;;;;;;;1.23;1.03;;;3.70;98.00;;;;;;5074278;28;20484;-69
2021/01/14 10:50:48;;;;;;;1.30;1.20;;;3.60;98.00;;;;;;5071846;28;20510;-68
2021/01/14 10:53:25;;;;;;;1.33;1.20;;;3.50;98.00;;;;;;5074296;28;20460;-68
2021/01/14 10:56:02;;;;;;;1.20;1.10;;;3.60;98.00;;;;;;5071622;28;20467;-66
2021/01/14 10:58:29;;;;;;;1.30;1.27;;;3.70;98.00;;;;;;5074109;28;20517;-66
2021/01/14 11:00:55;;;;;;;1.70;1.43;;;3.80;98.00;;;;;;5071770;28;20471;-69
2021/01/14 11:03:23;;;;;;;1.50;1.20;;;3.80;98.00;;;;;;5073193;28;20456;-71
2021/01/14 11:05:52;;;;;;;1.67;1.40;;;3.90;98.00;;;;;;5071026;28;20452;-68
2021/01/14 11:08:20;;;;;;;1.40;1.40;;;3.90;98.00;;;;;;5073326;28;20488;-66
2021/01/14 11:10:48;;;;;;;3.83;1.67;;;4.00;98.00;;;;;;5071293;28;20460;-69
2021/01/14 11:13:16;;;;;;;1.20;1.10;;;4.00;98.00;;;;;;5072927;28;20471;-70
2021/01/14 11:15:48;;;;;;;3.23;2.13;;;4.10;98.00;;;;;;5070887;28;20494;-69
2021/01/14 11:18:14;;;;;;;3.50;1.40;;;4.10;98.00;;;;;;5070641;28;20993;-69
2021/01/14 11:20:41;;;;;;;1.10;1.00;;;3.90;98.00;;;;;;5071134;28;20886;-69
2021/01/14 11:23:08;;;;;;;1.20;0.90;;;3.90;98.00;;;;;;5072865;28;20481;-68
2021/01/14 11:25:35;;;;;;;1.20;1.00;;;3.90;98.00;;;;;;5070913;28;20484;-68
2021/01/14 11:28:02;;;;;;;1.20;1.00;;;3.90;98.00;;;;;;5072642;28;20514;-72
2021/01/14 11:30:29;;;;;;;1.13;0.93;;;3.80;98.00;;;;;;5070591;28;20448;-68
2021/01/14 11:32:56;;;;;;;1.10;0.90;;;3.90;98.00;;;;;;5072860;28;20464;-67
2021/01/14 11:35:24;;;;;;;1.20;1.00;;;4.00;98.00;;;;;;5070508;28;20453;-70
2021/01/14 11:37:51;;;;;;;1.20;1.00;;;3.80;98.00;;;;;;5072529;28;20594;-69
2021/01/14 11:40:20;;;;;;;1.10;1.00;;;3.80;98.00;;;;;;5070502;28;20468;-71
2021/01/14 11:42:46;;;;;;;1.20;1.00;;;3.90;98.00;;;;;;5072596;28;20852;-68
2021/01/14 11:45:13;;;;;;;1.20;0.90;;;4.00;98.00;;;;;;5070469;28;20508;-68
2021/01/14 11:47:39;;;;;;;1.20;1.00;;;4.10;98.00;;;;;;5072356;28;20484;-68
2021/01/14 11:50:07;;;;;;;1.20;1.00;;;4.20;98.00;;;;;;5070322;28;20465;-67
2021/01/14 11:52:34;;;;;;;1.17;1.07;;;4.10;98.00;;;;;;5072480;28;20511;-68
2021/01/14 11:55:00;;;;;;;1.20;0.90;;;4.10;98.00;;;;;;5070547;28;20464;-68
2021/01/14 11:57:31;;;;;;;1.30;1.20;;;4.20;98.00;;;;;;5072327;28;20460;-69
2021/01/14 11:59:57;;;;;;;1.17;1.00;;;4.30;98.00;;;;;;5070360;28;20469;-69
2021/01/14 12:02:24;;;;;;;1.20;1.10;;;4.00;98.00;;;;;;5072278;28;20465;-68
2021/01/14 12:04:50;;;;;;;1.20;1.00;;;3.80;98.00;;;;;;5070538;28;20460;-71
2021/01/14 12:07:17;;;;;;;1.20;1.00;;;3.60;98.00;;;;;;5072039;28;20994;-69
2021/01/14 12:09:43;;;;;;;1.47;1.10;;;3.60;98.00;;;;;;5070077;28;20878;-68
2021/01/14 12:12:10;;;;;;;1.20;1.00;;;3.60;98.00;;;;;;5071982;28;20997;-68
2021/01/14 12:14:38;;;;;;;1.30;1.17;;;3.60;98.00;;;;;;5070372;28;20460;-69
2021/01/14 12:17:05;;;;;;;1.20;1.00;;;3.70;98.00;;;;;;5071745;28;20511;-68
2021/01/14 12:19:34;;;;;;;1.47;1.20;;;3.80;98.00;;;;;;5070853;28;20610;-68
2021/01/14 12:22:03;;;;;;;1.63;1.40;;;3.90;98.00;;;;;;5071787;28;20899;-68
2021/01/14 12:24:29;;;;;;;1.20;1.00;;;3.90;98.00;;;;;;5071568;28;20522;-68
2021/01/14 12:26:56;;;;;;;2.30;2.03;;;3.80;98.00;;;;;;5069976;28;20838;-71
2021/01/14 12:29:23;;;;;;;1.70;1.20;;;3.70;98.00;;;;;;5071837;28;20484;-67
2021/01/14 12:31:53;;;;;;;1.20;1.10;;;3.70;98.00;;;;;;5069593;28;20457;-68
2021/01/14 12:34:20;;;;;;;1.30;1.20;;;3.70;98.00;;;;;;5071769;28;20469;-67
2021/01/14 12:36:48;;;;;;;1.20;1.00;;;3.90;98.00;;;;;;5069318;28;20449;-71
2021/01/14 12:39:14;;;;;;;1.30;1.10;;;3.90;98.00;;;;;;5069934;28;20476;-69
2021/01/14 12:41:42;;;;;;;1.20;1.00;;;4.00;98.00;;;;;;5069263;28;20500;-68
2021/01/14 12:44:09;;;;;;;1.30;1.13;;;3.80;98.00;;;;;;5071481;28;20465;-68
2021/01/14 12:46:38;;;;;;;1.80;1.23;;;3.80;98.00;;;;;;5068959;28;20799;-68
2021/01/14 12:49:07;;;;;;;1.20;1.10;;;4.00;98.00;;;;;;5070326;28;20453;-69
2021/01/14 12:51:34;;;;;;;1.20;0.90;;;4.10;98.00;;;;;;5069223;28;20461;-68
2021/01/14 12:54:01;;;;;;;2.07;1.43;;;4.30;98.00;;;;;;5071405;28;20954;-68
2021/01/14 12:56:27;;;;;;;1.20;0.97;;;4.40;98.00;;;;;;5068790;28;20463;-68
2021/01/14 12:58:54;;;;;;;1.17;0.90;;;4.20;98.00;;;;;;5070987;28;20471;-68
2021/01/14 13:01:30;;;;;;;1.20;0.93;;;4.40;98.00;;;;;;5068934;28;20534;-67
2021/01/14 13:03:57;;;;;;;1.60;1.40;;;4.40;98.00;;;;;;5070702;28;20499;-67
2021/01/14 13:06:26;;;;;;;1.30;1.17;;;4.90;98.00;;;;;;5068583;28;20449;-66
2021/01/14 13:08:53;;;;;;;1.20;1.00;;;5.60;98.00;;;;;;5070696;28;20461;-67
2021/01/14 13:11:20;;;;;;;3.50;1.50;;;6.20;98.00;;;;;;5067273;28;20485;-67
2021/01/14 13:13:46;;;;;;;1.20;1.00;;;6.80;98.00;;;;;;5070136;28;20448;-69